createdAt,value
2019-03-18T00:01:50.684Z,0.40
2019-03-18T00:04:41.096Z,0.30
2019-03-18T00:07:29.814Z,1.00
2019-03-18T00:10:18.641Z,0.65
2019-03-18T00:13:07.706Z,0.50
2019-03-18T00:15:56.813Z,0.40
2019-03-18T00:18:45.784Z,0.47
2019-03-18T00:21:34.660Z,0.30
2019-03-18T00:24:23.236Z,0.30
2019-03-18T00:27:12.335Z,0.40
2019-03-18T00:30:00.489Z,0.40
2019-03-18T00:32:49.153Z,0.30
2019-03-18T00:35:37.954Z,0.50
2019-03-18T00:38:26.355Z,0.50
2019-03-18T00:41:14.884Z,0.47
2019-03-18T00:44:03.735Z,0.40
2019-03-18T00:46:52.550Z,0.30
2019-03-18T00:49:41.484Z,0.35
2019-03-18T00:52:30.398Z,0.40
2019-03-18T00:55:19.612Z,0.30
2019-03-18T00:58:08.370Z,0.40
2019-03-18T01:00:56.946Z,0.50
2019-03-18T01:03:45.715Z,0.40
2019-03-18T01:06:34.445Z,0.40
2019-03-18T01:09:23.195Z,0.47
2019-03-18T01:12:12.286Z,0.50
2019-03-18T01:15:01.015Z,0.60
2019-03-18T01:17:49.489Z,0.50
2019-03-18T01:20:38.695Z,0.57
2019-03-18T01:23:27.738Z,0.53
2019-03-18T01:26:15.977Z,0.40
2019-03-18T01:29:04.587Z,0.50
2019-03-18T01:31:53.658Z,0.40
2019-03-18T01:34:42.508Z,0.40
2019-03-18T01:37:32.722Z,0.57
2019-03-18T01:40:21.168Z,0.60
2019-03-18T01:43:10.287Z,0.50
2019-03-18T01:45:58.917Z,0.60
2019-03-18T01:48:47.316Z,0.60
2019-03-18T01:51:35.884Z,0.60
2019-03-18T01:54:24.963Z,0.50
2019-03-18T01:57:13.902Z,0.50
2019-03-18T02:00:02.168Z,0.40
2019-03-18T02:02:51.885Z,0.45
2019-03-18T02:05:40.468Z,0.50
2019-03-18T02:08:29.148Z,0.40
2019-03-18T02:11:17.784Z,0.50
2019-03-18T02:14:06.848Z,0.50
2019-03-18T02:16:55.709Z,0.50
2019-03-18T02:19:44.108Z,0.42
2019-03-18T02:22:32.799Z,0.40
2019-03-18T02:25:21.621Z,0.70
2019-03-18T02:28:10.452Z,0.47
2019-03-18T02:30:58.760Z,0.37
2019-03-18T02:33:47.675Z,0.47
2019-03-18T02:36:36.468Z,0.53
2019-03-18T02:39:25.275Z,0.30
2019-03-18T02:42:14.335Z,0.50
2019-03-18T02:45:03.012Z,0.60
2019-03-18T02:47:51.241Z,0.50
2019-03-18T02:50:39.717Z,0.30
2019-03-18T02:53:28.207Z,0.62
2019-03-18T02:56:16.639Z,0.45
2019-03-18T02:59:05.095Z,0.60
2019-03-18T03:01:53.813Z,0.50
2019-03-18T03:04:42.720Z,0.70
2019-03-18T03:07:31.213Z,0.50
2019-03-18T03:10:19.815Z,0.40
2019-03-18T03:13:07.873Z,0.57
2019-03-18T03:15:56.761Z,0.50
2019-03-18T03:18:45.581Z,0.70
2019-03-18T03:21:34.514Z,0.60
2019-03-18T03:24:23.409Z,0.55
2019-03-18T03:27:12.306Z,0.70
2019-03-18T03:30:00.834Z,0.50
2019-03-18T03:32:49.399Z,0.70
2019-03-18T03:35:37.867Z,0.60
2019-03-18T03:38:26.976Z,0.62
2019-03-18T03:41:17.883Z,0.80
2019-03-18T03:44:06.161Z,0.50
2019-03-18T03:46:55.060Z,0.60
2019-03-18T03:49:43.498Z,0.75
2019-03-18T03:52:32.487Z,0.70
2019-03-18T03:55:21.486Z,0.70
2019-03-18T03:58:10.581Z,0.80
2019-03-18T04:01:00.305Z,0.53
2019-03-18T04:03:49.539Z,0.78
2019-03-18T04:06:38.386Z,0.72
2019-03-18T04:09:27.612Z,0.80
2019-03-18T04:12:16.819Z,0.60
2019-03-18T04:15:07.807Z,0.60
2019-03-18T04:17:56.630Z,0.47
2019-03-18T04:20:45.438Z,0.78
2019-03-18T04:23:33.738Z,0.53
2019-03-18T04:26:23.022Z,0.72
2019-03-18T04:29:11.776Z,0.60
2019-03-18T04:32:00.823Z,0.70
2019-03-18T04:34:49.752Z,0.45
2019-03-18T04:37:38.825Z,0.60
2019-03-18T04:40:27.469Z,0.57
2019-03-18T04:43:16.105Z,0.80
2019-03-18T04:46:04.749Z,0.82
2019-03-18T04:48:53.344Z,0.60
2019-03-18T04:51:41.786Z,0.60
2019-03-18T04:54:31.832Z,0.50
2019-03-18T04:57:20.849Z,0.60
2019-03-18T05:00:10.462Z,0.68
2019-03-18T05:02:59.272Z,0.90
2019-03-18T05:05:48.290Z,0.70
2019-03-18T05:08:37.431Z,0.70
2019-03-18T05:15:14.823Z,0.67
2019-03-18T05:18:03.786Z,0.70
2019-03-18T05:20:52.434Z,0.60
2019-03-18T05:23:40.959Z,0.60
2019-03-18T05:26:29.621Z,0.80
2019-03-18T05:29:18.306Z,0.60
2019-03-18T05:32:07.355Z,0.50
2019-03-18T05:34:55.780Z,0.60
2019-03-18T05:37:44.500Z,0.70
2019-03-18T05:40:33.064Z,0.75
2019-03-18T05:43:22.338Z,0.97
2019-03-18T05:46:11.233Z,0.82
2019-03-18T05:49:00.290Z,0.60
2019-03-18T05:51:48.609Z,0.70
2019-03-18T05:54:37.333Z,0.60
2019-03-18T05:57:26.273Z,1.00
2019-03-18T06:00:14.976Z,0.80
2019-03-18T06:03:03.915Z,0.72
2019-03-18T06:05:52.545Z,0.90
2019-03-18T06:08:41.760Z,0.57
2019-03-18T06:11:30.572Z,0.90
2019-03-18T06:14:19.164Z,0.60
2019-03-18T06:17:08.035Z,0.57
2019-03-18T06:19:56.988Z,0.50
2019-03-18T06:22:46.318Z,0.90
2019-03-18T06:25:35.055Z,0.42
2019-03-18T06:28:24.064Z,0.70
2019-03-18T06:31:12.917Z,0.70
2019-03-18T06:34:01.562Z,0.70
2019-03-18T06:36:50.271Z,0.75
2019-03-18T06:39:39.092Z,0.90
2019-03-18T06:42:27.317Z,0.90
2019-03-18T06:45:15.932Z,0.70
2019-03-18T06:48:05.525Z,0.85
2019-03-18T06:50:54.435Z,1.00
2019-03-18T06:53:42.882Z,0.70
2019-03-18T06:56:31.678Z,0.80
2019-03-18T06:59:20.109Z,0.67
2019-03-18T07:02:09.203Z,0.60
2019-03-18T07:04:58.402Z,0.78
2019-03-18T07:07:47.568Z,0.80
2019-03-18T07:10:35.704Z,0.70
2019-03-18T07:13:24.662Z,0.80
2019-03-18T07:16:12.884Z,0.80
2019-03-18T07:19:01.191Z,1.00
2019-03-18T07:21:50.122Z,0.93
2019-03-18T07:24:39.135Z,0.80
2019-03-18T07:27:27.442Z,0.88
2019-03-18T07:30:16.066Z,0.88
2019-03-18T07:33:05.275Z,0.95
2019-03-18T07:35:53.598Z,0.80
2019-03-18T07:38:43.812Z,0.80
2019-03-18T07:41:32.468Z,1.07
2019-03-18T07:44:21.249Z,0.80
2019-03-18T07:47:10.514Z,0.98
2019-03-18T07:49:59.324Z,0.88
2019-03-18T07:52:47.820Z,1.17
2019-03-18T07:55:36.412Z,0.90
2019-03-18T07:58:24.844Z,1.05
2019-03-18T08:01:13.473Z,0.80
2019-03-18T08:04:02.438Z,1.07
2019-03-18T08:06:51.331Z,1.30
2019-03-18T08:09:39.946Z,0.90
2019-03-18T08:12:28.120Z,0.98
2019-03-18T08:15:16.891Z,1.25
2019-03-18T08:18:05.859Z,0.70
2019-03-18T08:20:54.305Z,1.00
2019-03-18T08:23:43.578Z,1.02
2019-03-18T08:26:32.434Z,0.90
2019-03-18T08:29:21.207Z,0.70
2019-03-18T08:32:11.814Z,0.95
2019-03-18T08:35:00.728Z,0.82
2019-03-18T08:37:49.068Z,1.10
2019-03-18T08:40:37.537Z,0.88
2019-03-18T08:43:26.711Z,1.00
2019-03-18T08:46:15.884Z,1.15
2019-03-18T08:49:04.321Z,1.62
2019-03-18T08:51:53.301Z,1.45
2019-03-18T08:54:41.976Z,1.30
2019-03-18T08:57:30.862Z,1.50
2019-03-18T09:00:19.815Z,1.70
2019-03-18T09:03:08.599Z,1.70
2019-03-18T09:05:57.291Z,1.90
2019-03-18T09:08:45.665Z,1.35
2019-03-18T09:11:34.375Z,1.17
2019-03-18T09:14:23.520Z,1.47
2019-03-18T09:17:11.866Z,1.10
2019-03-18T09:19:59.992Z,1.80
2019-03-18T09:22:49.108Z,1.40
2019-03-18T09:25:37.995Z,1.60
2019-03-18T09:28:26.950Z,1.10
2019-03-18T09:31:15.676Z,1.07
2019-03-18T09:34:05.048Z,1.12
2019-03-18T09:36:53.752Z,0.93
2019-03-18T09:39:42.514Z,1.27
2019-03-18T09:42:31.121Z,1.60
2019-03-18T09:45:20.013Z,0.90
2019-03-18T09:48:08.373Z,0.95
2019-03-18T09:50:56.726Z,1.10
2019-03-18T09:53:45.216Z,0.95
2019-03-18T09:56:35.562Z,0.95
2019-03-18T09:59:24.592Z,0.93
2019-03-18T10:02:13.094Z,1.20
2019-03-18T10:05:01.766Z,0.75
2019-03-18T10:07:50.403Z,1.07
2019-03-18T10:10:39.587Z,0.80
2019-03-18T10:13:28.755Z,0.97
2019-03-18T10:16:17.220Z,0.98
2019-03-18T10:19:06.244Z,1.47
2019-03-18T10:21:55.011Z,1.50
2019-03-18T10:24:43.543Z,1.00
2019-03-18T10:27:32.534Z,0.93
2019-03-18T10:30:21.712Z,0.72
2019-03-18T10:33:10.163Z,1.00
2019-03-18T10:35:59.137Z,0.93
2019-03-18T10:38:48.444Z,0.95
2019-03-18T10:41:37.337Z,1.00
2019-03-18T10:44:26.535Z,0.90
2019-03-18T10:47:15.314Z,1.35
2019-03-18T10:50:04.882Z,0.70
2019-03-18T10:52:53.949Z,0.62
2019-03-18T10:55:43.094Z,1.05
2019-03-18T10:58:32.093Z,0.70
2019-03-18T11:01:20.677Z,1.20
2019-03-18T11:04:09.711Z,0.70
2019-03-18T11:06:58.225Z,0.90
2019-03-18T11:09:47.308Z,0.80
2019-03-18T11:12:35.786Z,0.90
2019-03-18T11:15:24.798Z,1.10
2019-03-18T11:18:13.244Z,0.75
2019-03-18T11:21:02.406Z,1.52
2019-03-18T11:23:51.239Z,1.37
2019-03-18T11:26:40.752Z,0.75
2019-03-18T11:29:29.111Z,0.83
2019-03-18T11:32:17.999Z,1.00
2019-03-18T11:35:06.667Z,0.78
2019-03-18T11:37:55.936Z,1.00
2019-03-18T11:40:45.185Z,0.72
2019-03-18T11:43:34.133Z,0.93
2019-03-18T11:46:22.819Z,0.72
2019-03-18T11:49:11.819Z,0.75
2019-03-18T11:52:00.247Z,1.00
2019-03-18T11:54:48.701Z,0.60
2019-03-18T11:57:37.643Z,1.02
2019-03-18T12:00:27.069Z,0.90
2019-03-18T12:03:20.258Z,1.00
2019-03-18T12:06:09.338Z,0.98
2019-03-18T12:08:58.136Z,0.90
2019-03-18T12:11:46.677Z,1.20
2019-03-18T12:14:35.393Z,1.00
2019-03-18T12:17:24.021Z,0.80
2019-03-18T12:20:23.554Z,1.00
2019-03-18T12:23:03.327Z,0.72
2019-03-18T12:25:51.805Z,0.93
2019-03-18T12:28:40.011Z,0.80
2019-03-18T12:31:29.211Z,1.20
2019-03-18T12:34:17.945Z,1.02
2019-03-18T12:37:06.799Z,1.00
2019-03-18T12:39:55.560Z,1.20
2019-03-18T12:42:44.823Z,1.00
2019-03-18T12:45:34.391Z,0.75
2019-03-18T12:48:23.214Z,0.70
2019-03-18T12:51:12.547Z,0.70
2019-03-18T12:54:02.256Z,0.90
2019-03-18T12:56:50.948Z,0.62
2019-03-18T12:59:39.495Z,0.90
2019-03-18T13:02:29.063Z,0.82
2019-03-18T13:05:18.585Z,1.10
2019-03-18T13:08:06.982Z,1.05
2019-03-18T13:10:55.551Z,0.90
2019-03-18T13:13:44.726Z,1.10
2019-03-18T13:16:33.258Z,0.85
2019-03-18T13:19:21.349Z,0.80
2019-03-18T13:22:10.197Z,0.80
2019-03-18T13:24:59.300Z,0.70
2019-03-18T13:27:48.011Z,0.93
2019-03-18T13:30:37.056Z,0.80
2019-03-18T13:33:25.203Z,1.10
2019-03-18T13:36:14.486Z,0.70
2019-03-18T13:39:03.143Z,0.95
2019-03-18T13:41:52.209Z,0.95
2019-03-18T13:44:40.775Z,0.90
2019-03-18T13:47:29.170Z,0.88
2019-03-18T13:50:17.570Z,0.75
2019-03-18T13:53:06.075Z,0.90
2019-03-18T13:55:55.056Z,0.80
2019-03-18T13:58:45.371Z,0.90
2019-03-18T14:01:34.832Z,0.70
2019-03-18T14:04:25.091Z,0.70
2019-03-18T14:07:13.602Z,0.80
2019-03-18T14:10:03.069Z,0.90
2019-03-18T14:12:52.052Z,0.95
2019-03-18T14:15:40.604Z,0.93
2019-03-18T14:18:29.347Z,1.30
2019-03-18T14:21:18.543Z,1.03
2019-03-18T14:24:07.361Z,1.07
2019-03-18T14:26:56.446Z,0.70
2019-03-18T14:29:45.757Z,1.10
2019-03-18T14:32:34.826Z,1.20
2019-03-18T14:35:23.474Z,1.00
2019-03-18T14:38:12.226Z,1.42
2019-03-18T14:41:01.086Z,1.10
2019-03-18T14:43:49.724Z,0.93
2019-03-18T14:46:38.478Z,0.80
2019-03-18T14:49:26.908Z,1.17
2019-03-18T14:52:17.043Z,1.02
2019-03-18T14:55:06.619Z,0.85
2019-03-18T14:57:55.633Z,1.07
2019-03-18T15:00:45.672Z,0.93
2019-03-18T15:03:35.165Z,1.00
2019-03-18T15:06:23.991Z,1.05
2019-03-18T15:09:13.135Z,1.10
2019-03-18T15:12:02.122Z,1.45
2019-03-18T15:14:51.251Z,0.88
2019-03-18T15:17:40.192Z,0.80
2019-03-18T15:20:29.253Z,1.72
2019-03-18T15:23:17.944Z,0.98
2019-03-18T15:26:06.771Z,1.20
2019-03-18T15:28:56.994Z,1.40
2019-03-18T15:31:45.959Z,1.62
2019-03-18T15:34:34.608Z,1.40
2019-03-18T15:37:23.386Z,1.37
2019-03-18T15:40:13.410Z,1.25
2019-03-18T15:43:02.078Z,1.60
2019-03-18T15:45:50.215Z,1.50
2019-03-18T15:48:38.565Z,1.35
2019-03-18T15:51:27.043Z,1.10
2019-03-18T15:54:15.538Z,1.30
2019-03-18T15:57:04.723Z,1.20
2019-03-18T15:59:53.499Z,1.43
2019-03-18T16:02:42.747Z,1.32
2019-03-18T16:05:32.116Z,1.20
2019-03-18T16:08:20.370Z,1.15
2019-03-18T16:11:08.757Z,1.75
2019-03-18T16:13:57.525Z,2.43
2019-03-18T16:16:46.572Z,1.98
2019-03-18T16:19:35.414Z,2.62
2019-03-18T16:22:24.037Z,2.70
2019-03-18T16:44:36.094Z,6.43
2019-03-18T16:47:24.874Z,2.40
2019-03-18T16:50:14.761Z,1.10
2019-03-18T16:53:03.734Z,1.60
2019-03-18T16:55:52.989Z,1.30
2019-03-18T16:58:42.308Z,0.90
2019-03-18T17:01:31.390Z,1.20
2019-03-18T17:04:19.776Z,1.32
2019-03-18T17:07:08.007Z,1.45
2019-03-18T17:10:05.434Z,1.20
2019-03-18T17:13:00.701Z,1.00
2019-03-18T17:15:55.012Z,1.00
2019-03-18T17:18:57.798Z,1.10
2019-03-18T17:21:54.308Z,0.60
2019-03-18T17:24:44.057Z,1.40
2019-03-18T17:27:37.312Z,3.10
2019-03-18T17:30:40.712Z,1.50
2019-03-18T17:33:36.592Z,1.07
2019-03-18T17:36:33.040Z,1.52
2019-03-18T17:39:29.838Z,1.40
2019-03-18T17:42:31.202Z,2.92
2019-03-18T17:45:33.081Z,2.00
2019-03-18T17:48:30.369Z,6.17
2019-03-18T17:51:24.607Z,2.22
2019-03-18T17:54:19.066Z,2.00
2019-03-18T17:57:18.613Z,1.80
2019-03-18T18:00:18.855Z,2.80
2019-03-18T18:03:36.893Z,5.37
2019-03-18T18:06:19.182Z,1.72
2019-03-18T18:09:13.468Z,2.65
2019-03-18T18:12:07.907Z,6.40
2019-03-18T18:15:01.710Z,1.57
2019-03-18T18:17:55.008Z,2.40
2019-03-18T18:20:58.122Z,2.90
2019-03-18T18:24:11.490Z,1.98
2019-03-18T18:26:59.433Z,1.50
2019-03-18T18:30:10.998Z,1.60
2019-03-18T18:33:18.485Z,1.50
2019-03-18T18:36:10.864Z,1.32
2019-03-18T18:39:13.245Z,1.45
2019-03-18T18:42:06.624Z,1.47
2019-03-18T18:45:10.848Z,1.70
2019-03-18T18:48:33.739Z,1.60
2019-03-18T18:51:32.857Z,1.87
2019-03-18T18:54:37.645Z,1.40
2019-03-18T18:57:35.459Z,0.80
2019-03-18T19:00:29.036Z,1.85
2019-03-18T19:03:24.433Z,2.15
2019-03-18T19:06:12.766Z,8.33
2019-03-18T19:09:07.323Z,3.00
2019-03-18T19:12:02.657Z,3.22
2019-03-18T19:15:02.000Z,1.97
2019-03-18T19:18:05.791Z,3.25
2019-03-18T19:21:09.465Z,6.90
2019-03-18T19:24:08.743Z,2.55
2019-03-18T19:27:00.126Z,2.27
2019-03-18T19:29:54.058Z,1.80
2019-03-18T19:32:49.798Z,2.73
2019-03-18T19:35:50.778Z,2.98
2019-03-18T19:38:46.802Z,2.45
2019-03-18T19:41:40.411Z,4.17
2019-03-18T19:44:43.199Z,12.28
2019-03-18T19:47:37.197Z,8.53
2019-03-18T19:50:48.024Z,4.75
2019-03-18T19:53:49.180Z,2.77
2019-03-18T19:56:39.265Z,3.20
2019-03-18T19:59:34.634Z,2.65
2019-03-18T20:02:23.621Z,2.90
2019-03-18T20:05:15.729Z,2.60
2019-03-18T20:08:05.333Z,2.58
2019-03-18T20:10:54.299Z,2.30
2019-03-18T20:13:43.947Z,2.33
2019-03-18T20:16:33.302Z,2.45
2019-03-18T20:19:25.612Z,2.70
2019-03-18T20:22:13.074Z,2.52
2019-03-18T20:25:02.177Z,2.02
2019-03-18T20:27:50.804Z,2.42
2019-03-18T20:30:40.122Z,2.35
2019-03-18T20:33:29.333Z,2.40
2019-03-18T20:36:17.691Z,2.70
2019-03-18T20:39:08.045Z,2.52
2019-03-18T20:41:56.872Z,2.02
2019-03-18T20:44:45.784Z,2.45
2019-03-18T20:47:34.416Z,2.70
2019-03-18T20:50:22.726Z,2.75
2019-03-18T20:53:11.410Z,2.58
2019-03-18T20:56:00.757Z,2.55
2019-03-18T20:58:49.862Z,2.72
2019-03-18T21:01:39.949Z,2.40
2019-03-18T21:04:31.405Z,2.40
2019-03-18T21:07:21.137Z,2.77
2019-03-18T21:10:10.310Z,3.45
2019-03-18T21:12:59.555Z,3.27
2019-03-18T21:15:48.604Z,3.30
2019-03-18T21:18:37.857Z,2.83
2019-03-18T21:21:26.477Z,2.33
2019-03-18T21:24:22.668Z,2.50
2019-03-18T21:27:04.797Z,3.05
2019-03-18T21:29:53.188Z,2.80
2019-03-18T21:32:42.075Z,2.98
2019-03-18T21:35:31.505Z,2.42
2019-03-18T21:38:20.416Z,2.30
2019-03-18T21:41:09.185Z,2.35
2019-03-18T21:43:57.989Z,3.12
2019-03-18T21:46:46.856Z,2.70
2019-03-18T21:49:35.309Z,2.37
2019-03-18T21:52:24.158Z,2.17
2019-03-18T21:55:13.531Z,3.62
2019-03-18T21:58:04.841Z,3.35
2019-03-18T22:00:55.355Z,2.70
2019-03-18T22:03:43.444Z,2.85
2019-03-18T22:06:32.922Z,2.70
2019-03-18T22:09:22.068Z,7.15
2019-03-18T22:12:11.100Z,8.78
2019-03-18T22:15:00.019Z,6.55
2019-03-18T22:17:48.172Z,3.83
2019-03-18T22:20:37.864Z,2.90
2019-03-18T22:23:26.932Z,2.60
2019-03-18T22:26:15.206Z,2.70
2019-03-18T22:29:03.692Z,3.17
2019-03-18T22:31:52.892Z,3.40
2019-03-18T22:34:41.448Z,2.40
2019-03-18T22:37:30.561Z,2.50
2019-03-18T22:40:19.978Z,2.25
2019-03-18T22:43:08.976Z,2.65
2019-03-18T22:45:57.486Z,3.63
2019-03-18T22:48:46.606Z,2.83
2019-03-18T22:51:35.181Z,3.15
2019-03-18T22:54:23.776Z,2.35
2019-03-18T22:57:12.070Z,2.30
2019-03-18T23:00:00.902Z,3.00
2019-03-18T23:02:49.668Z,3.03
2019-03-18T23:05:38.429Z,3.90
2019-03-18T23:08:27.387Z,3.77
2019-03-18T23:11:16.009Z,4.20
2019-03-18T23:14:04.843Z,3.30
2019-03-18T23:16:53.651Z,4.53
2019-03-18T23:19:42.455Z,5.05
2019-03-18T23:22:30.846Z,3.00
2019-03-18T23:25:19.455Z,3.10
2019-03-18T23:28:07.780Z,2.95
2019-03-18T23:30:56.687Z,2.30
2019-03-18T23:33:45.399Z,2.30
2019-03-18T23:36:33.938Z,1.90
2019-03-18T23:39:22.342Z,2.15
2019-03-18T23:42:11.835Z,2.10
2019-03-18T23:45:00.350Z,1.90
2019-03-18T23:47:49.333Z,1.90
2019-03-18T23:50:38.581Z,1.90
2019-03-18T23:53:27.359Z,1.92
2019-03-18T23:56:15.511Z,1.85
2019-03-18T23:59:04.323Z,2.47
